Airport View

Enter AWOS ICAO identifier for current METAR.

ex. KFNL

NSTU 051250Z 00000KT 10SM FEW024 24/23 A2990 RMK SLP125 T02430225

5 Aug 2020 13:02

Frequency: 127.925

Phone: 684-699-0179

Other Area AWOS: NSFA

TAF NSTU 051120Z 0512/0612 VRB04KT P6SM FEW020 SCT040 SCT100